sensor_id;sensor_type;location;lat;lon;timestamp;temperature;humidity
12438;DHT22;6283;51.330;12.374;2022-10-31T00:00:43;14.50;1.00
12438;DHT22;6283;51.330;12.374;2022-10-31T00:03:09;14.50;1.00
12438;DHT22;6283;51.330;12.374;2022-10-31T00:05:35;14.40;1.00
12438;DHT22;6283;51.330;12.374;2022-10-31T00:08:00;14.40;1.00
12438;DHT22;6283;51.330;12.374;2022-10-31T00:10:26;14.40;1.00
12438;DHT22;6283;51.330;12.374;2022-10-31T00:12:51;14.40;1.00
12438;DHT22;6283;51.330;12.374;2022-10-31T00:15:17;14.40;1.00
12438;DHT22;6283;51.330;12.374;2022-10-31T00:17:43;14.40;1.00
12438;DHT22;6283;51.330;12.374;2022-10-31T00:20:09;14.40;1.00
12438;DHT22;6283;51.330;12.374;2022-10-31T00:22:34;14.30;1.00
12438;DHT22;6283;51.330;12.374;2022-10-31T00:25:00;14.40;1.00
12438;DHT22;6283;51.330;12.374;2022-10-31T00:27:25;14.30;1.00
12438;DHT22;6283;51.330;12.374;2022-10-31T00:29:51;14.60;1.00
12438;DHT22;6283;51.330;12.374;2022-10-31T00:32:16;14.40;1.00
12438;DHT22;6283;51.330;12.374;2022-10-31T00:34:42;14.60;1.00
12438;DHT22;6283;51.330;12.374;2022-10-31T00:37:07;14.40;1.00
12438;DHT22;6283;51.330;12.374;2022-10-31T00:39:33;14.40;1.00
12438;DHT22;6283;51.330;12.374;2022-10-31T00:41:58;14.30;1.00
12438;DHT22;6283;51.330;12.374;2022-10-31T00:44:24;14.40;1.00
12438;DHT22;6283;51.330;12.374;2022-10-31T00:46:49;14.40;1.00
12438;DHT22;6283;51.330;12.374;2022-10-31T00:49:15;14.40;1.00
12438;DHT22;6283;51.330;12.374;2022-10-31T00:51:40;14.20;1.00
12438;DHT22;6283;51.330;12.374;2022-10-31T00:54:06;14.30;1.00
12438;DHT22;6283;51.330;12.374;2022-10-31T00:56:32;14.30;1.00
12438;DHT22;6283;51.330;12.374;2022-10-31T00:58:57;14.30;1.00
12438;DHT22;6283;51.330;12.374;2022-10-31T01:01:23;14.10;1.00
12438;DHT22;6283;51.330;12.374;2022-10-31T01:03:48;14.30;1.00
12438;DHT22;6283;51.330;12.374;2022-10-31T01:06:14;14.00;1.00
12438;DHT22;6283;51.330;12.374;2022-10-31T01:08:41;14.20;1.00
12438;DHT22;6283;51.330;12.374;2022-10-31T01:11:18;14.30;1.00
12438;DHT22;6283;51.330;12.374;2022-10-31T01:13:45;14.10;1.00
12438;DHT22;6283;51.330;12.374;2022-10-31T01:16:17;14.10;1.00
12438;DHT22;6283;51.330;12.374;2022-10-31T01:18:43;14.00;1.00
12438;DHT22;6283;51.330;12.374;2022-10-31T01:21:14;14.10;1.00
12438;DHT22;6283;51.330;12.374;2022-10-31T01:23:40;14.00;1.00
12438;DHT22;6283;51.330;12.374;2022-10-31T01:26:10;14.00;1.00
12438;DHT22;6283;51.330;12.374;2022-10-31T01:28:38;13.90;1.00
12438;DHT22;6283;51.330;12.374;2022-10-31T01:31:08;14.00;1.00
12438;DHT22;6283;51.330;12.374;2022-10-31T01:33:34;14.10;1.00
12438;DHT22;6283;51.330;12.374;2022-10-31T01:36:00;14.10;1.00
12438;DHT22;6283;51.330;12.374;2022-10-31T01:38:27;13.80;1.00
12438;DHT22;6283;51.330;12.374;2022-10-31T01:40:52;13.90;1.00
12438;DHT22;6283;51.330;12.374;2022-10-31T01:43:19;13.80;1.00
12438;DHT22;6283;51.330;12.374;2022-10-31T01:45:51;13.90;1.00
12438;DHT22;6283;51.330;12.374;2022-10-31T01:48:19;13.80;1.00
12438;DHT22;6283;51.330;12.374;2022-10-31T01:50:48;13.80;1.00
12438;DHT22;6283;51.330;12.374;2022-10-31T01:53:17;13.80;1.00
12438;DHT22;6283;51.330;12.374;2022-10-31T01:55:45;13.70;1.00
12438;DHT22;6283;51.330;12.374;2022-10-31T01:58:14;13.70;1.00
12438;DHT22;6283;51.330;12.374;2022-10-31T02:00:43;13.60;1.00
12438;DHT22;6283;51.330;12.374;2022-10-31T02:03:09;13.60;1.00
12438;DHT22;6283;51.330;12.374;2022-10-31T02:05:35;13.60;1.00
12438;DHT22;6283;51.330;12.374;2022-10-31T02:08:18;13.70;1.00
12438;DHT22;6283;51.330;12.374;2022-10-31T02:10:45;13.60;1.00
12438;DHT22;6283;51.330;12.374;2022-10-31T02:13:11;13.50;1.00
12438;DHT22;6283;51.330;12.374;2022-10-31T02:15:39;13.70;1.00
12438;DHT22;6283;51.330;12.374;2022-10-31T02:18:06;13.30;1.00
12438;DHT22;6283;51.330;12.374;2022-10-31T02:25:51;13.20;1.00
12438;DHT22;6283;51.330;12.374;2022-10-31T02:29:03;13.30;1.00
12438;DHT22;6283;51.330;12.374;2022-10-31T02:31:35;13.30;1.00
12438;DHT22;6283;51.330;12.374;2022-10-31T02:34:29;13.40;1.00
12438;DHT22;6283;51.330;12.374;2022-10-31T02:40:25;13.20;1.00
12438;DHT22;6283;51.330;12.374;2022-10-31T02:48:41;13.20;1.00
12438;DHT22;6283;51.330;12.374;2022-10-31T02:51:11;13.30;1.00
12438;DHT22;6283;51.330;12.374;2022-10-31T02:53:37;13.00;1.00
12438;DHT22;6283;51.330;12.374;2022-10-31T02:58:44;13.00;1.00
12438;DHT22;6283;51.330;12.374;2022-10-31T03:01:29;13.10;1.00
12438;DHT22;6283;51.330;12.374;2022-10-31T03:04:08;13.10;1.00
12438;DHT22;6283;51.330;12.374;2022-10-31T03:07:08;13.00;1.00
12438;DHT22;6283;51.330;12.374;2022-10-31T03:12:15;12.90;1.00
12438;DHT22;6283;51.330;12.374;2022-10-31T03:14:48;12.90;1.00
12438;DHT22;6283;51.330;12.374;2022-10-31T03:17:29;13.00;1.00
12438;DHT22;6283;51.330;12.374;2022-10-31T03:20:00;13.00;1.00
12438;DHT22;6283;51.330;12.374;2022-10-31T03:22:29;12.90;1.00
12438;DHT22;6283;51.330;12.374;2022-10-31T03:24:56;12.70;1.00
12438;DHT22;6283;51.330;12.374;2022-10-31T03:27:25;12.80;1.00
12438;DHT22;6283;51.330;12.374;2022-10-31T03:29:55;12.80;1.00
12438;DHT22;6283;51.330;12.374;2022-10-31T03:32:28;12.70;1.00
12438;DHT22;6283;51.330;12.374;2022-10-31T03:34:58;12.90;1.00
12438;DHT22;6283;51.330;12.374;2022-10-31T03:37:26;12.50;1.00
12438;DHT22;6283;51.330;12.374;2022-10-31T03:39:54;12.70;1.00
12438;DHT22;6283;51.330;12.374;2022-10-31T03:42:24;12.60;1.00
12438;DHT22;6283;51.330;12.374;2022-10-31T03:45:10;12.80;1.00
12438;DHT22;6283;51.330;12.374;2022-10-31T03:47:38;12.80;1.00
12438;DHT22;6283;51.330;12.374;2022-10-31T03:50:06;12.80;1.00
12438;DHT22;6283;51.330;12.374;2022-10-31T03:52:49;12.80;1.00
12438;DHT22;6283;51.330;12.374;2022-10-31T04:00:20;12.90;1.00
12438;DHT22;6283;51.330;12.374;2022-10-31T04:03:10;12.60;1.00
12438;DHT22;6283;51.330;12.374;2022-10-31T04:05:37;12.70;1.00
12438;DHT22;6283;51.330;12.374;2022-10-31T04:08:08;12.50;1.00
12438;DHT22;6283;51.330;12.374;2022-10-31T04:10:37;12.60;1.00
12438;DHT22;6283;51.330;12.374;2022-10-31T04:13:09;12.80;1.00
12438;DHT22;6283;51.330;12.374;2022-10-31T04:15:37;12.70;1.00
12438;DHT22;6283;51.330;12.374;2022-10-31T04:18:05;12.50;1.00
12438;DHT22;6283;51.330;12.374;2022-10-31T04:20:35;12.70;1.00
12438;DHT22;6283;51.330;12.374;2022-10-31T04:23:02;12.70;1.00
12438;DHT22;6283;51.330;12.374;2022-10-31T04:25:28;12.50;1.00
12438;DHT22;6283;51.330;12.374;2022-10-31T04:27:54;12.60;1.00
12438;DHT22;6283;51.330;12.374;2022-10-31T04:30:19;12.40;1.00
12438;DHT22;6283;51.330;12.374;2022-10-31T04:32:45;12.30;1.00
12438;DHT22;6283;51.330;12.374;2022-10-31T04:35:11;12.60;1.00
12438;DHT22;6283;51.330;12.374;2022-10-31T04:37:36;12.40;1.00
12438;DHT22;6283;51.330;12.374;2022-10-31T04:40:03;12.20;1.00
12438;DHT22;6283;51.330;12.374;2022-10-31T04:42:31;12.40;1.00
12438;DHT22;6283;51.330;12.374;2022-10-31T04:44:57;12.20;1.00
12438;DHT22;6283;51.330;12.374;2022-10-31T04:47:22;12.40;1.00
12438;DHT22;6283;51.330;12.374;2022-10-31T04:49:48;12.50;1.00
12438;DHT22;6283;51.330;12.374;2022-10-31T04:52:13;12.40;1.00
12438;DHT22;6283;51.330;12.374;2022-10-31T04:54:39;12.00;1.00
12438;DHT22;6283;51.330;12.374;2022-10-31T04:57:05;12.20;1.00
12438;DHT22;6283;51.330;12.374;2022-10-31T04:59:30;12.10;1.00
12438;DHT22;6283;51.330;12.374;2022-10-31T05:01:56;12.10;1.00
12438;DHT22;6283;51.330;12.374;2022-10-31T05:04:21;12.10;1.00
12438;DHT22;6283;51.330;12.374;2022-10-31T05:06:47;12.10;1.00
12438;DHT22;6283;51.330;12.374;2022-10-31T05:09:13;12.20;1.00
12438;DHT22;6283;51.330;12.374;2022-10-31T05:11:38;12.00;1.00
12438;DHT22;6283;51.330;12.374;2022-10-31T05:14:04;12.00;1.00
12438;DHT22;6283;51.330;12.374;2022-10-31T05:16:30;12.00;1.00
12438;DHT22;6283;51.330;12.374;2022-10-31T05:18:55;12.00;1.00
12438;DHT22;6283;51.330;12.374;2022-10-31T05:21:21;11.90;1.00
12438;DHT22;6283;51.330;12.374;2022-10-31T05:23:46;11.90;1.00
12438;DHT22;6283;51.330;12.374;2022-10-31T05:26:12;12.20;1.00
12438;DHT22;6283;51.330;12.374;2022-10-31T05:28:37;12.00;1.00
12438;DHT22;6283;51.330;12.374;2022-10-31T05:31:03;12.00;1.00
12438;DHT22;6283;51.330;12.374;2022-10-31T05:33:29;12.00;1.00
12438;DHT22;6283;51.330;12.374;2022-10-31T05:35:54;11.70;1.00
12438;DHT22;6283;51.330;12.374;2022-10-31T05:38:20;11.70;1.00
12438;DHT22;6283;51.330;12.374;2022-10-31T05:40:46;11.80;1.00
12438;DHT22;6283;51.330;12.374;2022-10-31T05:43:11;11.90;1.00
12438;DHT22;6283;51.330;12.374;2022-10-31T05:45:37;11.70;1.00
12438;DHT22;6283;51.330;12.374;2022-10-31T05:48:02;11.60;1.00
12438;DHT22;6283;51.330;12.374;2022-10-31T05:50:30;11.60;1.00
12438;DHT22;6283;51.330;12.374;2022-10-31T05:53:01;11.70;1.00
12438;DHT22;6283;51.330;12.374;2022-10-31T05:55:27;11.90;1.00
12438;DHT22;6283;51.330;12.374;2022-10-31T05:57:54;11.60;1.00
12438;DHT22;6283;51.330;12.374;2022-10-31T06:00:20;11.80;1.00
12438;DHT22;6283;51.330;12.374;2022-10-31T06:02:46;11.60;1.00
12438;DHT22;6283;51.330;12.374;2022-10-31T06:05:12;11.60;1.00
12438;DHT22;6283;51.330;12.374;2022-10-31T06:07:38;11.90;1.00
12438;DHT22;6283;51.330;12.374;2022-10-31T06:10:05;11.80;1.00
12438;DHT22;6283;51.330;12.374;2022-10-31T06:12:31;11.60;1.00
12438;DHT22;6283;51.330;12.374;2022-10-31T06:14:57;11.90;1.00
12438;DHT22;6283;51.330;12.374;2022-10-31T06:17:23;11.70;1.00
12438;DHT22;6283;51.330;12.374;2022-10-31T06:19:48;11.70;1.00
12438;DHT22;6283;51.330;12.374;2022-10-31T06:22:14;11.80;1.00
12438;DHT22;6283;51.330;12.374;2022-10-31T06:24:39;12.00;1.00
12438;DHT22;6283;51.330;12.374;2022-10-31T06:27:05;11.90;1.00
12438;DHT22;6283;51.330;12.374;2022-10-31T06:29:31;12.00;1.00
12438;DHT22;6283;51.330;12.374;2022-10-31T06:31:57;11.80;1.00
12438;DHT22;6283;51.330;12.374;2022-10-31T06:34:22;12.00;1.00
12438;DHT22;6283;51.330;12.374;2022-10-31T06:36:48;11.90;1.00
12438;DHT22;6283;51.330;12.374;2022-10-31T06:39:14;11.80;1.00
12438;DHT22;6283;51.330;12.374;2022-10-31T06:41:40;11.90;1.00
12438;DHT22;6283;51.330;12.374;2022-10-31T06:44:07;11.70;1.00
12438;DHT22;6283;51.330;12.374;2022-10-31T06:46:33;12.10;1.00
12438;DHT22;6283;51.330;12.374;2022-10-31T06:48:59;12.10;1.00
12438;DHT22;6283;51.330;12.374;2022-10-31T06:51:24;11.90;1.00
12438;DHT22;6283;51.330;12.374;2022-10-31T06:53:50;12.20;1.00
12438;DHT22;6283;51.330;12.374;2022-10-31T06:56:15;11.80;1.00
12438;DHT22;6283;51.330;12.374;2022-10-31T06:58:41;12.10;1.00
12438;DHT22;6283;51.330;12.374;2022-10-31T07:01:07;12.20;1.00
12438;DHT22;6283;51.330;12.374;2022-10-31T07:03:32;12.20;1.00
12438;DHT22;6283;51.330;12.374;2022-10-31T07:05:58;12.10;1.00
12438;DHT22;6283;51.330;12.374;2022-10-31T07:08:24;12.20;1.00
12438;DHT22;6283;51.330;12.374;2022-10-31T07:10:54;12.20;1.00
12438;DHT22;6283;51.330;12.374;2022-10-31T07:13:21;12.30;1.00
12438;DHT22;6283;51.330;12.374;2022-10-31T07:15:55;12.40;1.00
12438;DHT22;6283;51.330;12.374;2022-10-31T07:18:21;12.40;1.00
12438;DHT22;6283;51.330;12.374;2022-10-31T07:20:47;12.30;1.00
12438;DHT22;6283;51.330;12.374;2022-10-31T07:23:13;12.30;1.00
12438;DHT22;6283;51.330;12.374;2022-10-31T07:25:39;12.50;1.00
12438;DHT22;6283;51.330;12.374;2022-10-31T07:28:05;12.60;1.00
12438;DHT22;6283;51.330;12.374;2022-10-31T07:30:31;12.60;1.00
12438;DHT22;6283;51.330;12.374;2022-10-31T07:32:57;12.50;1.00
12438;DHT22;6283;51.330;12.374;2022-10-31T07:35:25;12.70;1.00
12438;DHT22;6283;51.330;12.374;2022-10-31T07:37:51;12.80;1.00
12438;DHT22;6283;51.330;12.374;2022-10-31T07:40:17;12.90;1.00
12438;DHT22;6283;51.330;12.374;2022-10-31T07:42:45;12.80;1.00
12438;DHT22;6283;51.330;12.374;2022-10-31T07:45:13;12.80;1.00
12438;DHT22;6283;51.330;12.374;2022-10-31T07:50:11;13.00;1.00
12438;DHT22;6283;51.330;12.374;2022-10-31T07:52:37;13.20;1.00
12438;DHT22;6283;51.330;12.374;2022-10-31T07:55:03;13.10;1.00
12438;DHT22;6283;51.330;12.374;2022-10-31T07:57:29;13.20;1.00
12438;DHT22;6283;51.330;12.374;2022-10-31T07:59:55;13.30;1.00
12438;DHT22;6283;51.330;12.374;2022-10-31T08:02:20;13.30;1.00
12438;DHT22;6283;51.330;12.374;2022-10-31T08:04:46;13.30;1.00
12438;DHT22;6283;51.330;12.374;2022-10-31T08:07:12;13.40;1.00
12438;DHT22;6283;51.330;12.374;2022-10-31T08:09:37;13.60;1.00
12438;DHT22;6283;51.330;12.374;2022-10-31T08:12:03;13.60;1.00
12438;DHT22;6283;51.330;12.374;2022-10-31T08:14:29;13.80;1.00
12438;DHT22;6283;51.330;12.374;2022-10-31T08:16:55;13.70;1.00
12438;DHT22;6283;51.330;12.374;2022-10-31T08:19:21;13.80;1.00
12438;DHT22;6283;51.330;12.374;2022-10-31T08:21:46;13.90;1.00
12438;DHT22;6283;51.330;12.374;2022-10-31T08:24:15;13.90;1.00
12438;DHT22;6283;51.330;12.374;2022-10-31T08:26:41;14.00;1.00
12438;DHT22;6283;51.330;12.374;2022-10-31T08:29:06;14.20;1.00
12438;DHT22;6283;51.330;12.374;2022-10-31T08:31:32;14.20;1.00
12438;DHT22;6283;51.330;12.374;2022-10-31T08:33:57;14.30;1.00
12438;DHT22;6283;51.330;12.374;2022-10-31T08:36:23;14.40;1.00
12438;DHT22;6283;51.330;12.374;2022-10-31T08:38:49;14.50;1.00
12438;DHT22;6283;51.330;12.374;2022-10-31T08:41:14;14.50;1.00
12438;DHT22;6283;51.330;12.374;2022-10-31T08:43:40;14.60;1.00
12438;DHT22;6283;51.330;12.374;2022-10-31T08:46:06;14.70;1.00
12438;DHT22;6283;51.330;12.374;2022-10-31T08:48:32;14.80;1.00
12438;DHT22;6283;51.330;12.374;2022-10-31T08:50:58;15.00;1.00
12438;DHT22;6283;51.330;12.374;2022-10-31T08:53:25;14.90;1.00
12438;DHT22;6283;51.330;12.374;2022-10-31T08:55:50;15.30;1.00
12438;DHT22;6283;51.330;12.374;2022-10-31T08:58:18;15.10;1.00
12438;DHT22;6283;51.330;12.374;2022-10-31T09:00:46;15.10;1.00
12438;DHT22;6283;51.330;12.374;2022-10-31T09:03:14;15.30;1.00
12438;DHT22;6283;51.330;12.374;2022-10-31T09:05:40;15.60;1.00
12438;DHT22;6283;51.330;12.374;2022-10-31T09:08:06;15.50;1.00
12438;DHT22;6283;51.330;12.374;2022-10-31T09:10:34;15.60;1.00
12438;DHT22;6283;51.330;12.374;2022-10-31T09:13:08;15.60;1.00
12438;DHT22;6283;51.330;12.374;2022-10-31T09:15:35;15.70;1.00
12438;DHT22;6283;51.330;12.374;2022-10-31T09:18:01;15.70;1.00
12438;DHT22;6283;51.330;12.374;2022-10-31T09:20:28;15.80;1.00
12438;DHT22;6283;51.330;12.374;2022-10-31T09:23:21;15.80;1.00
12438;DHT22;6283;51.330;12.374;2022-10-31T09:25:48;16.00;1.00
12438;DHT22;6283;51.330;12.374;2022-10-31T09:28:15;16.10;1.00
12438;DHT22;6283;51.330;12.374;2022-10-31T09:30:41;16.10;1.00
12438;DHT22;6283;51.330;12.374;2022-10-31T09:33:11;16.20;1.00
12438;DHT22;6283;51.330;12.374;2022-10-31T09:35:37;16.30;1.00
12438;DHT22;6283;51.330;12.374;2022-10-31T09:38:05;16.30;1.00
12438;DHT22;6283;51.330;12.374;2022-10-31T09:40:42;16.50;1.00
12438;DHT22;6283;51.330;12.374;2022-10-31T09:43:33;16.60;1.00
12438;DHT22;6283;51.330;12.374;2022-10-31T09:51:34;16.60;1.00
12438;DHT22;6283;51.330;12.374;2022-10-31T09:56:36;16.70;1.00
12438;DHT22;6283;51.330;12.374;2022-10-31T09:59:04;16.70;1.00
12438;DHT22;6283;51.330;12.374;2022-10-31T10:01:42;16.80;1.00
12438;DHT22;6283;51.330;12.374;2022-10-31T10:04:30;16.90;1.00
12438;DHT22;6283;51.330;12.374;2022-10-31T10:06:56;16.90;1.00
12438;DHT22;6283;51.330;12.374;2022-10-31T10:09:26;17.00;1.00
12438;DHT22;6283;51.330;12.374;2022-10-31T10:25:33;17.40;1.00
12438;DHT22;6283;51.330;12.374;2022-10-31T10:28:14;17.50;1.00
12438;DHT22;6283;51.330;12.374;2022-10-31T10:30:50;17.70;1.00
12438;DHT22;6283;51.330;12.374;2022-10-31T10:33:24;17.80;1.00
12438;DHT22;6283;51.330;12.374;2022-10-31T10:35:59;17.90;1.00
12438;DHT22;6283;51.330;12.374;2022-10-31T10:41:19;18.10;1.00
12438;DHT22;6283;51.330;12.374;2022-10-31T10:43:48;18.10;1.00
12438;DHT22;6283;51.330;12.374;2022-10-31T10:49:17;18.30;1.00
12438;DHT22;6283;51.330;12.374;2022-10-31T10:51:58;18.40;1.00
12438;DHT22;6283;51.330;12.374;2022-10-31T10:57:29;18.50;1.00
12438;DHT22;6283;51.330;12.374;2022-10-31T10:59:59;18.60;1.00
12438;DHT22;6283;51.330;12.374;2022-10-31T11:02:27;18.60;1.00
12438;DHT22;6283;51.330;12.374;2022-10-31T11:04:58;18.70;1.00
12438;DHT22;6283;51.330;12.374;2022-10-31T11:07:25;18.80;1.00
12438;DHT22;6283;51.330;12.374;2022-10-31T11:09:50;19.00;1.00
12438;DHT22;6283;51.330;12.374;2022-10-31T11:12:32;19.10;1.00
12438;DHT22;6283;51.330;12.374;2022-10-31T11:15:02;19.20;1.00
12438;DHT22;6283;51.330;12.374;2022-10-31T11:17:36;19.40;1.00
12438;DHT22;6283;51.330;12.374;2022-10-31T11:22:29;19.70;1.00
12438;DHT22;6283;51.330;12.374;2022-10-31T11:24:55;19.90;1.00
12438;DHT22;6283;51.330;12.374;2022-10-31T11:27:22;19.90;1.00
12438;DHT22;6283;51.330;12.374;2022-10-31T11:29:49;20.00;1.00
12438;DHT22;6283;51.330;12.374;2022-10-31T11:32:22;20.20;1.00
12438;DHT22;6283;51.330;12.374;2022-10-31T11:34:59;20.20;1.00
12438;DHT22;6283;51.330;12.374;2022-10-31T11:37:27;20.20;1.00
12438;DHT22;6283;51.330;12.374;2022-10-31T11:39:57;20.30;1.00
12438;DHT22;6283;51.330;12.374;2022-10-31T11:42:43;20.40;1.00
12438;DHT22;6283;51.330;12.374;2022-10-31T11:47:50;20.60;1.00
12438;DHT22;6283;51.330;12.374;2022-10-31T11:50:29;20.70;1.00
12438;DHT22;6283;51.330;12.374;2022-10-31T11:52:56;20.70;1.00
12438;DHT22;6283;51.330;12.374;2022-10-31T11:55:37;20.90;1.00
12438;DHT22;6283;51.330;12.374;2022-10-31T11:58:04;21.10;1.00
12438;DHT22;6283;51.330;12.374;2022-10-31T12:00:36;21.20;1.00
12438;DHT22;6283;51.330;12.374;2022-10-31T12:08:38;21.80;1.00
12438;DHT22;6283;51.330;12.374;2022-10-31T12:11:35;21.90;1.00
12438;DHT22;6283;51.330;12.374;2022-10-31T12:14:08;22.00;1.00
12438;DHT22;6283;51.330;12.374;2022-10-31T12:24:41;22.40;1.00
12438;DHT22;6283;51.330;12.374;2022-10-31T12:27:22;22.50;1.00
12438;DHT22;6283;51.330;12.374;2022-10-31T12:30:02;22.60;1.00
12438;DHT22;6283;51.330;12.374;2022-10-31T12:32:46;22.40;1.00
12438;DHT22;6283;51.330;12.374;2022-10-31T12:35:40;22.40;1.00
12438;DHT22;6283;51.330;12.374;2022-10-31T12:49:12;22.40;1.00
12438;DHT22;6283;51.330;12.374;2022-10-31T12:51:51;22.30;1.00
12438;DHT22;6283;51.330;12.374;2022-10-31T12:57:23;22.30;1.00
12438;DHT22;6283;51.330;12.374;2022-10-31T12:59:53;22.40;1.00
12438;DHT22;6283;51.330;12.374;2022-10-31T13:02:33;22.50;1.00
12438;DHT22;6283;51.330;12.374;2022-10-31T13:05:24;22.60;1.00
12438;DHT22;6283;51.330;12.374;2022-10-31T13:07:58;22.60;1.00
12438;DHT22;6283;51.330;12.374;2022-10-31T13:10:30;22.60;1.00
12438;DHT22;6283;51.330;12.374;2022-10-31T13:13:02;22.40;1.00
12438;DHT22;6283;51.330;12.374;2022-10-31T13:15:34;22.40;1.00
12438;DHT22;6283;51.330;12.374;2022-10-31T13:18:09;22.30;1.00
12438;DHT22;6283;51.330;12.374;2022-10-31T13:20:42;22.20;1.00
12438;DHT22;6283;51.330;12.374;2022-10-31T13:23:24;22.10;1.00
12438;DHT22;6283;51.330;12.374;2022-10-31T13:25:54;21.90;1.00
12438;DHT22;6283;51.330;12.374;2022-10-31T13:28:26;21.80;1.00
12438;DHT22;6283;51.330;12.374;2022-10-31T13:30:54;21.70;1.00
12438;DHT22;6283;51.330;12.374;2022-10-31T13:33:26;21.60;1.00
12438;DHT22;6283;51.330;12.374;2022-10-31T13:38:42;21.40;1.00
12438;DHT22;6283;51.330;12.374;2022-10-31T13:44:10;21.30;1.00
12438;DHT22;6283;51.330;12.374;2022-10-31T13:46:39;21.20;1.00
12438;DHT22;6283;51.330;12.374;2022-10-31T13:51:47;21.00;1.00
12438;DHT22;6283;51.330;12.374;2022-10-31T13:54:34;20.90;1.00
12438;DHT22;6283;51.330;12.374;2022-10-31T13:57:00;20.80;1.00
12438;DHT22;6283;51.330;12.374;2022-10-31T13:59:28;20.60;1.00
12438;DHT22;6283;51.330;12.374;2022-10-31T14:02:02;20.60;1.00
12438;DHT22;6283;51.330;12.374;2022-10-31T14:04:44;20.50;1.00
12438;DHT22;6283;51.330;12.374;2022-10-31T14:07:17;20.40;1.00
12438;DHT22;6283;51.330;12.374;2022-10-31T14:10:06;20.40;1.00
12438;DHT22;6283;51.330;12.374;2022-10-31T14:12:46;20.30;1.00
12438;DHT22;6283;51.330;12.374;2022-10-31T14:15:21;20.20;1.00
12438;DHT22;6283;51.330;12.374;2022-10-31T14:18:03;20.20;1.00
12438;DHT22;6283;51.330;12.374;2022-10-31T14:23:34;20.00;1.00
12438;DHT22;6283;51.330;12.374;2022-10-31T14:29:29;19.90;1.00
12438;DHT22;6283;51.330;12.374;2022-10-31T14:31:53;19.80;1.00
12438;DHT22;6283;51.330;12.374;2022-10-31T14:34:27;19.80;1.00
12438;DHT22;6283;51.330;12.374;2022-10-31T14:53:08;19.30;1.00
12438;DHT22;6283;51.330;12.374;2022-10-31T14:55:41;19.30;1.00
12438;DHT22;6283;51.330;12.374;2022-10-31T14:58:08;19.20;1.00
12438;DHT22;6283;51.330;12.374;2022-10-31T15:00:35;19.10;1.00
12438;DHT22;6283;51.330;12.374;2022-10-31T15:03:14;19.10;1.00
12438;DHT22;6283;51.330;12.374;2022-10-31T15:05:47;19.00;1.00
12438;DHT22;6283;51.330;12.374;2022-10-31T15:08:30;18.90;1.00
12438;DHT22;6283;51.330;12.374;2022-10-31T15:10:57;18.80;1.00
12438;DHT22;6283;51.330;12.374;2022-10-31T15:13:22;18.80;1.00
12438;DHT22;6283;51.330;12.374;2022-10-31T15:15:50;18.70;1.00
12438;DHT22;6283;51.330;12.374;2022-10-31T15:18:21;18.70;1.00
12438;DHT22;6283;51.330;12.374;2022-10-31T15:20:47;18.60;1.00
12438;DHT22;6283;51.330;12.374;2022-10-31T15:23:21;18.50;1.00
12438;DHT22;6283;51.330;12.374;2022-10-31T15:25:47;18.40;1.00
12438;DHT22;6283;51.330;12.374;2022-10-31T15:28:22;18.40;1.00
12438;DHT22;6283;51.330;12.374;2022-10-31T15:30:50;18.30;1.00
12438;DHT22;6283;51.330;12.374;2022-10-31T15:33:24;18.30;1.00
12438;DHT22;6283;51.330;12.374;2022-10-31T15:36:01;18.20;1.00
12438;DHT22;6283;51.330;12.374;2022-10-31T15:38:27;18.10;1.00
12438;DHT22;6283;51.330;12.374;2022-10-31T15:41:03;18.10;1.00
12438;DHT22;6283;51.330;12.374;2022-10-31T15:43:35;18.00;1.00
12438;DHT22;6283;51.330;12.374;2022-10-31T15:46:02;17.90;1.00
12438;DHT22;6283;51.330;12.374;2022-10-31T15:48:29;17.90;1.00
12438;DHT22;6283;51.330;12.374;2022-10-31T15:50:58;17.80;1.00
12438;DHT22;6283;51.330;12.374;2022-10-31T15:53:25;17.80;1.00
12438;DHT22;6283;51.330;12.374;2022-10-31T15:55:57;17.70;1.00
12438;DHT22;6283;51.330;12.374;2022-10-31T15:58:24;17.70;1.00
12438;DHT22;6283;51.330;12.374;2022-10-31T16:01:05;17.60;1.00
12438;DHT22;6283;51.330;12.374;2022-10-31T16:03:32;17.50;1.00
12438;DHT22;6283;51.330;12.374;2022-10-31T16:06:01;17.50;1.00
12438;DHT22;6283;51.330;12.374;2022-10-31T16:13:30;17.30;1.00
12438;DHT22;6283;51.330;12.374;2022-10-31T16:16:00;17.30;1.00
12438;DHT22;6283;51.330;12.374;2022-10-31T16:18:27;17.20;1.00
12438;DHT22;6283;51.330;12.374;2022-10-31T16:20:55;17.20;1.00
12438;DHT22;6283;51.330;12.374;2022-10-31T16:23:23;17.10;1.00
12438;DHT22;6283;51.330;12.374;2022-10-31T16:25:50;17.10;1.00
12438;DHT22;6283;51.330;12.374;2022-10-31T16:28:22;17.10;1.00
12438;DHT22;6283;51.330;12.374;2022-10-31T16:30:51;17.00;1.00
12438;DHT22;6283;51.330;12.374;2022-10-31T16:35:50;16.90;1.00
12438;DHT22;6283;51.330;12.374;2022-10-31T16:38:16;16.90;1.00
12438;DHT22;6283;51.330;12.374;2022-10-31T16:40:42;16.90;1.00
12438;DHT22;6283;51.330;12.374;2022-10-31T16:43:12;16.90;1.00
12438;DHT22;6283;51.330;12.374;2022-10-31T16:45:48;16.80;1.00
12438;DHT22;6283;51.330;12.374;2022-10-31T16:48:19;16.80;1.00
12438;DHT22;6283;51.330;12.374;2022-10-31T16:50:46;16.80;1.00
12438;DHT22;6283;51.330;12.374;2022-10-31T16:53:13;16.70;1.00
12438;DHT22;6283;51.330;12.374;2022-10-31T16:55:56;16.70;1.00
12438;DHT22;6283;51.330;12.374;2022-10-31T16:58:24;16.70;1.00
12438;DHT22;6283;51.330;12.374;2022-10-31T17:00:51;16.70;1.00
12438;DHT22;6283;51.330;12.374;2022-10-31T17:03:18;16.60;1.00
12438;DHT22;6283;51.330;12.374;2022-10-31T17:05:43;16.60;1.00
12438;DHT22;6283;51.330;12.374;2022-10-31T17:08:10;16.60;1.00
12438;DHT22;6283;51.330;12.374;2022-10-31T17:10:36;16.60;1.00
12438;DHT22;6283;51.330;12.374;2022-10-31T17:13:03;16.60;1.00
12438;DHT22;6283;51.330;12.374;2022-10-31T17:15:37;16.50;1.00
12438;DHT22;6283;51.330;12.374;2022-10-31T17:18:47;16.50;1.00
12438;DHT22;6283;51.330;12.374;2022-10-31T17:29:36;16.40;1.00
12438;DHT22;6283;51.330;12.374;2022-10-31T19:54:35;15.40;1.00
12438;DHT22;6283;51.330;12.374;2022-10-31T19:57:01;15.20;1.00
12438;DHT22;6283;51.330;12.374;2022-10-31T19:59:26;15.30;1.00
12438;DHT22;6283;51.330;12.374;2022-10-31T20:01:52;15.20;1.00
12438;DHT22;6283;51.330;12.374;2022-10-31T20:04:17;15.30;1.00
12438;DHT22;6283;51.330;12.374;2022-10-31T20:06:43;15.50;1.00
12438;DHT22;6283;51.330;12.374;2022-10-31T20:09:11;15.20;1.00
12438;DHT22;6283;51.330;12.374;2022-10-31T20:11:41;15.20;1.00
12438;DHT22;6283;51.330;12.374;2022-10-31T20:14:08;15.10;1.00
12438;DHT22;6283;51.330;12.374;2022-10-31T20:16:34;15.20;1.00
12438;DHT22;6283;51.330;12.374;2022-10-31T20:19:00;15.30;1.00
12438;DHT22;6283;51.330;12.374;2022-10-31T20:21:28;15.10;1.00
12438;DHT22;6283;51.330;12.374;2022-10-31T20:24:05;15.30;1.00
12438;DHT22;6283;51.330;12.374;2022-10-31T20:26:32;15.10;1.00
12438;DHT22;6283;51.330;12.374;2022-10-31T20:28:58;15.30;1.00
12438;DHT22;6283;51.330;12.374;2022-10-31T20:31:27;15.20;1.00
12438;DHT22;6283;51.330;12.374;2022-10-31T20:33:53;15.00;1.00
12438;DHT22;6283;51.330;12.374;2022-10-31T20:36:20;15.10;1.00
12438;DHT22;6283;51.330;12.374;2022-10-31T20:38:48;15.00;1.00